Terminal Aerodrome Forecast
Issued by NWS

Home | Current Version | Previous Version | Text Only | Print | Product List | Glossary On
Versions: 1 2 3 4 5 6 7 8 9 10 11 12 13 14 15 16 17 18 19 20 21 22 23
181
FTUS45 KTFX 060103 AAA
TAFGTF
TAF AMD
KGTF 060103Z 0601/0624 33008KT P6SM SCT025 BKN040
      TEMPO 0601/0602 2SM -SHSN BKN025
     FM061000 35006KT P6SM SCT015 BKN025
      TEMPO 0610/0614 1SM BR OVC015
     FM062100 36008KT P6SM SCT025 BKN040=

USA.gov is the U.S. government's official web portal to all federal, state and local government web resources and services.